EJU42YF LPMA-LPPR
Flight info
| Callsign | EJU42YF |
|---|---|
| Flight time | N/A |
| Altitude | 36000 |
| Route | DEGUN DCT VABEM DCT ASMAR DCT DIRMA DCT ASMOV ASMOV3A/35 |
| Aircraft | A320/M-SDE3FGHIRWY/LB1 |
Departure
| Time | N/A |
|---|---|
| Airport | Cristiano Ronaldo International Airport (LPMA) |
Arrival
| Time | 2026-05-06 20:37 |
|---|---|
| Airport | Francisco de Sá Carneiro Airport (LPPR) |
| Time | Latitude | Longitude | Altitude | Speed | Heading |
|---|---|---|---|---|---|
| 2026-05-06 19:41 | 36.37047 | -13.44491 | 36069 ft | 444 kts | 26° |
| 2026-05-06 19:41 | 36.39569 | -13.42414 | 36067 ft | 430 kts | 26° |
| 2026-05-06 19:42 | 36.44597 | -13.38278 | 36075 ft | 441 kts | 26° |
| 2026-05-06 19:42 | 36.49754 | -13.34018 | 36070 ft | 446 kts | 27° |
| 2026-05-06 19:43 | 36.54888 | -13.29747 | 36071 ft | 447 kts | 27° |
| 2026-05-06 19:43 | 36.60073 | -13.25443 | 36063 ft | 447 kts | 27° |
| 2026-05-06 19:44 | 36.65258 | -13.21138 | 36069 ft | 448 kts | 27° |
| 2026-05-06 19:44 | 36.70440 | -13.16819 | 36075 ft | 448 kts | 27° |
| 2026-05-06 19:45 | 36.75632 | -13.12500 | 36079 ft | 448 kts | 27° |
| 2026-05-06 19:45 | 36.80798 | -13.08196 | 36078 ft | 449 kts | 27° |
| 2026-05-06 19:46 | 36.85989 | -13.03852 | 36082 ft | 449 kts | 27° |
| 2026-05-06 19:46 | 36.91191 | -12.99489 | 36077 ft | 450 kts | 27° |
| 2026-05-06 19:47 | 36.96393 | -12.95123 | 36077 ft | 450 kts | 27° |
| 2026-05-06 19:47 | 37.01601 | -12.90747 | 36080 ft | 451 kts | 27° |
| 2026-05-06 19:48 | 37.06783 | -12.86396 | 36081 ft | 451 kts | 27° |
| 2026-05-06 19:48 | 37.12000 | -12.81998 | 36079 ft | 452 kts | 28° |
| 2026-05-06 19:49 | 37.17218 | -12.77579 | 36078 ft | 452 kts | 28° |
| 2026-05-06 19:49 | 37.22437 | -12.73165 | 36076 ft | 452 kts | 28° |
| 2026-05-06 19:50 | 37.27628 | -12.68771 | 36070 ft | 453 kts | 28° |
| 2026-05-06 19:50 | 37.32855 | -12.64333 | 36064 ft | 453 kts | 28° |
| 2026-05-06 19:51 | 37.38083 | -12.59875 | 36064 ft | 454 kts | 28° |
| 2026-05-06 19:51 | 37.43317 | -12.55407 | 36063 ft | 455 kts | 28° |
| 2026-05-06 19:52 | 37.48536 | -12.50965 | 36058 ft | 455 kts | 28° |
| 2026-05-06 19:52 | 37.53789 | -12.46487 | 36064 ft | 456 kts | 28° |
| 2026-05-06 19:53 | 37.59048 | -12.41986 | 36064 ft | 457 kts | 28° |
| 2026-05-06 19:53 | 37.64304 | -12.37475 | 36069 ft | 457 kts | 28° |
| 2026-05-06 19:54 | 37.69577 | -12.32945 | 36065 ft | 458 kts | 28° |
| 2026-05-06 19:54 | 37.74843 | -12.28401 | 36066 ft | 458 kts | 29° |
| 2026-05-06 19:55 | 37.80089 | -12.23870 | 36062 ft | 459 kts | 29° |
| 2026-05-06 19:55 | 37.85373 | -12.19306 | 36057 ft | 460 kts | 29° |
| 2026-05-06 19:56 | 37.89779 | -12.15493 | 36054 ft | 460 kts | 29° |
| 2026-05-06 19:56 | 37.95927 | -12.10176 | 36052 ft | 461 kts | 29° |
| 2026-05-06 19:57 | 38.00371 | -12.06326 | 36049 ft | 461 kts | 29° |
| 2026-05-06 19:57 | 38.05642 | -12.01748 | 36048 ft | 462 kts | 29° |
| 2026-05-06 19:58 | 38.10953 | -11.97120 | 36050 ft | 463 kts | 29° |
| 2026-05-06 19:58 | 38.16267 | -11.92476 | 36048 ft | 464 kts | 30° |
| 2026-05-06 19:59 | 38.21564 | -11.87842 | 36049 ft | 464 kts | 30° |
| 2026-05-06 19:59 | 38.26884 | -11.83185 | 36047 ft | 464 kts | 30° |
| 2026-05-06 20:00 | 38.32207 | -11.78507 | 36043 ft | 465 kts | 30° |
| 2026-05-06 20:00 | 38.37536 | -11.73816 | 36043 ft | 465 kts | 30° |
| 2026-05-06 20:01 | 38.42868 | -11.69119 | 36038 ft | 466 kts | 30° |
| 2026-05-06 20:01 | 38.48218 | -11.64414 | 36039 ft | 467 kts | 30° |
| 2026-05-06 20:02 | 38.53534 | -11.59714 | 36039 ft | 466 kts | 30° |
| 2026-05-06 20:02 | 38.58842 | -11.55005 | 36041 ft | 465 kts | 30° |
| 2026-05-06 20:03 | 38.64198 | -11.50261 | 36033 ft | 469 kts | 30° |
| 2026-05-06 20:03 | 38.69526 | -11.45529 | 36036 ft | 470 kts | 30° |
| 2026-05-06 20:04 | 38.74903 | -11.40737 | 36038 ft | 470 kts | 31° |
| 2026-05-06 20:04 | 38.80277 | -11.35933 | 36034 ft | 471 kts | 31° |
| 2026-05-06 20:05 | 38.85664 | -11.31118 | 36036 ft | 472 kts | 31° |
| 2026-05-06 20:05 | 38.91021 | -11.26320 | 36039 ft | 472 kts | 31° |
| 2026-05-06 20:06 | 38.96376 | -11.21516 | 36041 ft | 473 kts | 31° |
| 2026-05-06 20:06 | 39.01771 | -11.16668 | 36036 ft | 473 kts | 31° |
| 2026-05-06 20:07 | 39.07167 | -11.11811 | 36036 ft | 473 kts | 31° |
| 2026-05-06 20:07 | 39.12563 | -11.06947 | 36037 ft | 474 kts | 31° |
| 2026-05-06 20:08 | 39.17964 | -11.02063 | 36040 ft | 474 kts | 31° |
| 2026-05-06 20:08 | 39.23336 | -10.97195 | 36041 ft | 474 kts | 32° |
| 2026-05-06 20:09 | 39.28743 | -10.92290 | 36033 ft | 475 kts | 32° |
| 2026-05-06 20:09 | 39.34152 | -10.87377 | 36028 ft | 475 kts | 32° |
| 2026-05-06 20:10 | 39.39549 | -10.82457 | 36023 ft | 476 kts | 32° |
| 2026-05-06 20:10 | 39.44964 | -10.77499 | 36024 ft | 476 kts | 32° |
| 2026-05-06 20:11 | 39.50161 | -10.72751 | 36020 ft | 477 kts | 32° |
| 2026-05-06 20:11 | 39.55469 | -10.67905 | 36019 ft | 477 kts | 32° |
| 2026-05-06 20:12 | 39.60867 | -10.62958 | 36019 ft | 477 kts | 32° |
| 2026-05-06 20:12 | 39.66287 | -10.57964 | 36018 ft | 478 kts | 33° |
| 2026-05-06 20:13 | 39.71713 | -10.52944 | 36011 ft | 478 kts | 33° |
| 2026-05-06 20:13 | 39.77069 | -10.47793 | 36003 ft | 481 kts | 41° |
| 2026-05-06 20:14 | 39.81529 | -10.41322 | 36004 ft | 484 kts | 47° |
| 2026-05-06 20:14 | 39.85944 | -10.34700 | 36001 ft | 484 kts | 47° |
| 2026-05-06 20:15 | 39.90351 | -10.28058 | 36002 ft | 484 kts | 47° |
| 2026-05-06 20:15 | 39.94769 | -10.21409 | 35999 ft | 485 kts | 47° |
| 2026-05-06 20:16 | 39.99187 | -10.14752 | 35999 ft | 485 kts | 47° |
| 2026-05-06 20:16 | 40.03598 | -10.08087 | 35991 ft | 486 kts | 47° |
| 2026-05-06 20:17 | 40.08020 | -10.01392 | 35993 ft | 486 kts | 47° |
| 2026-05-06 20:17 | 40.12411 | -9.94733 | 35992 ft | 487 kts | 47° |
| 2026-05-06 20:18 | 40.16804 | -9.88048 | 35991 ft | 487 kts | 48° |
| 2026-05-06 20:18 | 40.21201 | -9.81330 | 35989 ft | 482 kts | 48° |
| 2026-05-06 20:19 | 40.23360 | -9.78028 | 35655 ft | 467 kts | 48° |
| 2026-05-06 20:19 | 40.25458 | -9.74822 | 34521 ft | 463 kts | 48° |
| 2026-05-06 20:19 | 40.27538 | -9.71645 | 33074 ft | 464 kts | 49° |
| 2026-05-06 20:19 | 40.29537 | -9.68587 | 31579 ft | 465 kts | 49° |
| 2026-05-06 20:20 | 40.31704 | -9.65266 | 30413 ft | 456 kts | 50° |
| 2026-05-06 20:20 | 40.33744 | -9.62132 | 29226 ft | 447 kts | 50° |
| 2026-05-06 20:20 | 40.35714 | -9.59097 | 28041 ft | 438 kts | 50° |
| 2026-05-06 20:20 | 40.37671 | -9.56078 | 26879 ft | 429 kts | 50° |
| 2026-05-06 20:21 | 40.39588 | -9.53126 | 25750 ft | 421 kts | 50° |
| 2026-05-06 20:21 | 40.41473 | -9.50225 | 24667 ft | 413 kts | 50° |
| 2026-05-06 20:21 | 40.43327 | -9.47374 | 23616 ft | 407 kts | 50° |
| 2026-05-06 20:21 | 40.45147 | -9.44574 | 22435 ft | 400 kts | 50° |
| 2026-05-06 20:22 | 40.46942 | -9.41813 | 21335 ft | 393 kts | 50° |
| 2026-05-06 20:22 | 40.48703 | -9.39096 | 20290 ft | 386 kts | 50° |
| 2026-05-06 20:22 | 40.50424 | -9.36429 | 19312 ft | 380 kts | 50° |
| 2026-05-06 20:22 | 40.52112 | -9.33803 | 18749 ft | 379 kts | 50° |
| 2026-05-06 20:23 | 40.53805 | -9.31168 | 18258 ft | 375 kts | 50° |
| 2026-05-06 20:23 | 40.55482 | -9.28563 | 17705 ft | 371 kts | 50° |
| 2026-05-06 20:23 | 40.57138 | -9.25994 | 16779 ft | 363 kts | 50° |
| 2026-05-06 20:23 | 40.58760 | -9.23476 | 15796 ft | 358 kts | 50° |
| 2026-05-06 20:24 | 40.60358 | -9.20995 | 14870 ft | 351 kts | 50° |
| 2026-05-06 20:24 | 40.61904 | -9.18588 | 13989 ft | 345 kts | 50° |
| 2026-05-06 20:24 | 40.63439 | -9.16195 | 13038 ft | 339 kts | 50° |
| 2026-05-06 20:24 | 40.64948 | -9.13837 | 12092 ft | 337 kts | 50° |
| 2026-05-06 20:25 | 40.66460 | -9.11472 | 11588 ft | 334 kts | 50° |
| 2026-05-06 20:25 | 40.67950 | -9.09143 | 11112 ft | 331 kts | 50° |
| 2026-05-06 20:25 | 40.69434 | -9.06822 | 10956 ft | 331 kts | 51° |
| 2026-05-06 20:25 | 40.70917 | -9.04502 | 10952 ft | 330 kts | 51° |
| 2026-05-06 20:26 | 40.72391 | -9.02195 | 10470 ft | 328 kts | 51° |
| 2026-05-06 20:26 | 40.73851 | -8.99908 | 9951 ft | 326 kts | 51° |
| 2026-05-06 20:26 | 40.75296 | -8.97670 | 9768 ft | 313 kts | 48° |
| 2026-05-06 20:26 | 40.76889 | -8.95808 | 9626 ft | 300 kts | 41° |
| 2026-05-06 20:27 | 40.78461 | -8.94069 | 9162 ft | 290 kts | 41° |
| 2026-05-06 20:27 | 40.80000 | -8.92363 | 8404 ft | 286 kts | 41° |
| 2026-05-06 20:27 | 40.81486 | -8.90711 | 7816 ft | 286 kts | 41° |
| 2026-05-06 20:27 | 40.82997 | -8.89028 | 7427 ft | 281 kts | 41° |
| 2026-05-06 20:28 | 40.84487 | -8.87372 | 7009 ft | 279 kts | 40° |
| 2026-05-06 20:28 | 40.85966 | -8.85728 | 6602 ft | 276 kts | 40° |
| 2026-05-06 20:28 | 40.87424 | -8.84109 | 6031 ft | 270 kts | 40° |
| 2026-05-06 20:28 | 40.88830 | -8.82546 | 5284 ft | 266 kts | 39° |
| 2026-05-06 20:29 | 40.90270 | -8.80946 | 4810 ft | 265 kts | 39° |
| 2026-05-06 20:29 | 40.91670 | -8.79386 | 4374 ft | 261 kts | 39° |
| 2026-05-06 20:29 | 40.93048 | -8.77847 | 3999 ft | 256 kts | 39° |
| 2026-05-06 20:29 | 40.94403 | -8.76328 | 3942 ft | 256 kts | 39° |
| 2026-05-06 20:30 | 40.95743 | -8.74829 | 3944 ft | 254 kts | 39° |
| 2026-05-06 20:30 | 40.98233 | -8.72050 | 3945 ft | 227 kts | 38° |
| 2026-05-06 20:30 | 40.99435 | -8.70708 | 3947 ft | 226 kts | 39° |
| 2026-05-06 20:31 | 41.00634 | -8.69362 | 3948 ft | 225 kts | 39° |
| 2026-05-06 20:31 | 41.01783 | -8.68074 | 3946 ft | 210 kts | 38° |
| 2026-05-06 20:31 | 41.02860 | -8.66863 | 3947 ft | 206 kts | 38° |
| 2026-05-06 20:31 | 41.03951 | -8.65640 | 3948 ft | 206 kts | 38° |
| 2026-05-06 20:32 | 41.05051 | -8.64427 | 3952 ft | 205 kts | 34° |
| 2026-05-06 20:32 | 41.06336 | -8.63648 | 3947 ft | 203 kts | 12° |
| 2026-05-06 20:32 | 41.07715 | -8.63633 | 3827 ft | 197 kts | 349° |
| 2026-05-06 20:32 | 41.09040 | -8.63994 | 3696 ft | 192 kts | 349° |
| 2026-05-06 20:33 | 41.10318 | -8.64335 | 3593 ft | 180 kts | 349° |
| 2026-05-06 20:33 | 41.11526 | -8.64643 | 3299 ft | 175 kts | 350° |
| 2026-05-06 20:33 | 41.12685 | -8.64985 | 2869 ft | 171 kts | 346° |
| 2026-05-06 20:33 | 41.13843 | -8.65365 | 2454 ft | 168 kts | 347° |
| 2026-05-06 20:34 | 41.14921 | -8.65641 | 2081 ft | 153 kts | 352° |
| 2026-05-06 20:34 | 41.15956 | -8.65873 | 1704 ft | 143 kts | 351° |
| 2026-05-06 20:34 | 41.16899 | -8.66094 | 1428 ft | 134 kts | 351° |
| 2026-05-06 20:34 | 41.17797 | -8.66335 | 1215 ft | 128 kts | 349° |
| 2026-05-06 20:35 | 41.18646 | -8.66552 | 1015 ft | 122 kts | 351° |
| 2026-05-06 20:35 | 41.19463 | -8.66746 | 911 ft | 117 kts | 351° |
| 2026-05-06 20:35 | 41.20252 | -8.66938 | 825 ft | 115 kts | 348° |
| 2026-05-06 20:35 | 41.21029 | -8.67152 | 694 ft | 114 kts | 348° |
| 2026-05-06 20:36 | 41.21811 | -8.67342 | 564 ft | 115 kts | 348° |
| 2026-05-06 20:36 | 41.22586 | -8.67543 | 437 ft | 115 kts | 348° |
| 2026-05-06 20:36 | 41.23365 | -8.67754 | 272 ft | 109 kts | 348° |
| 2026-05-06 20:36 | 41.24023 | -8.67922 | 213 ft | 75 kts | 349° |
| 2026-05-06 20:37 | 41.24400 | -8.68021 | 209 ft | 43 kts | 348° |
| 2026-05-06 20:37 | 41.24679 | -8.68094 | 208 ft | 39 kts | 350° |
| 2026-05-06 20:37 | 41.24964 | -8.68161 | 190 ft | 48 kts | 352° |
| 2026-05-06 20:37 | 41.25222 | -8.68125 | 181 ft | 30 kts | 14° |
| 2026-05-06 20:38 | 41.25291 | -8.68037 | 178 ft | 3 kts | 122° |
| 2026-05-06 20:38 | 41.25241 | -8.68010 | 179 ft | 21 kts | 166° |
| 2026-05-06 20:38 | 41.25094 | -8.67971 | 186 ft | 21 kts | 167° |
| 2026-05-06 20:38 | 41.24969 | -8.67939 | 192 ft | 17 kts | 170° |
| 2026-05-06 20:39 | 41.24864 | -8.67895 | 196 ft | 18 kts | 155° |
| 2026-05-06 20:39 | 41.24762 | -8.67830 | 211 ft | 14 kts | 161° |
| 2026-05-06 20:39 | 41.24664 | -8.67801 | 208 ft | 18 kts | 171° |
| 2026-05-06 20:39 | 41.24454 | -8.67745 | 211 ft | 35 kts | 168° |
| 2026-05-06 20:40 | 41.24282 | -8.67650 | 214 ft | 24 kts | 117° |
| 2026-05-06 20:40 | 41.24152 | -8.67562 | 220 ft | 21 kts | 167° |
| 2026-05-06 20:40 | 41.24024 | -8.67528 | 223 ft | 19 kts | 168° |
| 2026-05-06 20:40 | 41.23937 | -8.67506 | 227 ft | 10 kts | 169° |
| 2026-05-06 20:41 | 41.23876 | -8.67489 | 228 ft | 8 kts | 168° |
| 2026-05-06 20:41 | 41.23826 | -8.67470 | 229 ft | 4 kts | 132° |
| 2026-05-06 20:41 | 41.23824 | -8.67440 | 230 ft | 5 kts | 90° |
| 2026-05-06 20:41 | 41.23827 | -8.67407 | 231 ft | 3 kts | 81° |
| 2026-05-06 20:42 | 41.23828 | -8.67400 | 232 ft | 0 kts | 81° |